createdAt,value
2022-10-01T00:01:17.125Z,6.95
2022-10-01T00:03:45.148Z,5.75
2022-10-01T00:06:16.726Z,6.75
2022-10-01T00:08:49.146Z,6.30
2022-10-01T00:11:22.032Z,7.93
2022-10-01T00:13:49.947Z,6.50
2022-10-01T00:16:20.411Z,6.95
2022-10-01T00:18:48.642Z,6.57
2022-10-01T00:21:19.070Z,6.78
2022-10-01T00:23:46.524Z,6.55
2022-10-01T00:26:21.592Z,7.28
2022-10-01T00:28:52.942Z,6.95
2022-10-01T00:31:19.786Z,6.70
2022-10-01T00:33:47.211Z,7.50
2022-10-01T00:36:14.129Z,7.68
2022-10-01T00:38:41.248Z,10.95
2022-10-01T00:41:10.023Z,12.32
2022-10-01T00:43:42.742Z,9.15
2022-10-01T00:46:21.299Z,16.80
2022-10-01T00:49:03.968Z,15.60
2022-10-01T00:51:35.650Z,12.90
2022-10-01T00:54:10.483Z,16.73
2022-10-01T00:56:38.360Z,17.08
2022-10-01T00:59:07.369Z,16.42
2022-10-01T01:01:37.641Z,14.85
2022-10-01T01:04:16.610Z,11.80
2022-10-01T01:06:57.937Z,11.00
2022-10-01T01:09:30.351Z,9.52
2022-10-01T01:12:06.087Z,9.73
2022-10-01T01:14:38.680Z,11.10
2022-10-01T01:17:12.915Z,15.18
2022-10-01T01:19:54.724Z,14.65
2022-10-01T01:22:27.007Z,13.05
2022-10-01T01:25:06.508Z,13.18
2022-10-01T01:27:41.083Z,12.40
2022-10-01T01:30:11.710Z,12.70
2022-10-01T01:33:03.311Z,11.25
2022-10-01T01:35:49.570Z,12.25
2022-10-01T01:38:22.089Z,11.15
2022-10-01T01:40:51.711Z,12.45
2022-10-01T01:43:24.700Z,10.90
2022-10-01T01:45:55.283Z,9.43
2022-10-01T01:48:26.960Z,12.80
2022-10-01T01:51:08.709Z,9.70
2022-10-01T01:53:35.852Z,8.50
2022-10-01T01:56:02.815Z,7.60
2022-10-01T01:58:32.363Z,7.97
2022-10-01T02:00:59.172Z,7.68
2022-10-01T02:03:29.320Z,7.45
2022-10-01T02:06:17.212Z,7.72
2022-10-01T02:08:52.258Z,7.00
2022-10-01T02:11:28.580Z,7.05
2022-10-01T02:14:15.914Z,6.32
2022-10-01T02:17:04.460Z,6.47
2022-10-01T02:19:41.301Z,6.38
2022-10-01T02:22:36.931Z,6.20
2022-10-01T02:25:07.003Z,5.32
2022-10-01T02:27:40.610Z,6.07
2022-10-01T02:30:10.003Z,5.88
2022-10-01T02:32:44.168Z,7.13
2022-10-01T02:35:15.300Z,8.13
2022-10-01T02:37:44.952Z,7.63
2022-10-01T02:40:16.447Z,8.35
2022-10-01T02:42:50.953Z,8.48
2022-10-01T02:45:22.937Z,8.05
2022-10-01T02:47:57.595Z,6.68
2022-10-01T02:50:31.279Z,7.10
2022-10-01T02:53:06.427Z,6.57
2022-10-01T02:55:37.875Z,6.80
2022-10-01T02:58:05.337Z,8.38
2022-10-01T03:00:32.336Z,8.52
2022-10-01T03:02:59.404Z,7.70
2022-10-01T03:05:26.389Z,7.68
2022-10-01T03:07:53.212Z,7.40
2022-10-01T03:10:20.362Z,6.75
2022-10-01T03:12:47.281Z,6.00
2022-10-01T03:15:16.603Z,6.97
2022-10-01T03:20:10.534Z,7.13
2022-10-01T03:22:37.392Z,6.72
2022-10-01T03:25:04.862Z,6.40
2022-10-01T03:27:31.648Z,6.93
2022-10-01T03:29:58.516Z,6.45
2022-10-01T03:32:25.371Z,6.10
2022-10-01T03:34:52.192Z,6.10
2022-10-01T03:37:19.030Z,6.13
2022-10-01T03:39:45.818Z,5.72
2022-10-01T03:42:12.622Z,6.10
2022-10-01T03:44:39.460Z,7.03
2022-10-01T03:47:06.270Z,5.88
2022-10-01T03:49:34.464Z,8.50
2022-10-01T03:52:02.536Z,7.90
2022-10-01T03:54:31.541Z,7.45
2022-10-01T03:56:58.715Z,7.15
2022-10-01T03:59:27.309Z,8.18
2022-10-01T04:01:54.894Z,6.78
2022-10-01T04:04:21.760Z,8.05
2022-10-01T04:06:48.603Z,6.43
2022-10-01T04:09:15.425Z,7.60
2022-10-01T04:11:42.193Z,8.38
2022-10-01T04:14:09.214Z,8.63
2022-10-01T04:16:36.365Z,7.78
2022-10-01T04:19:04.876Z,8.55
2022-10-01T04:21:32.143Z,9.00
2022-10-01T04:23:59.836Z,9.73
2022-10-01T04:26:27.227Z,9.52
2022-10-01T04:28:54.067Z,8.18
2022-10-01T04:31:27.043Z,8.80
2022-10-01T04:33:55.933Z,11.02
2022-10-01T04:36:24.290Z,12.90
2022-10-01T04:38:54.691Z,12.35
2022-10-01T04:41:23.778Z,12.70
2022-10-01T04:43:50.626Z,13.25
2022-10-01T04:46:17.735Z,12.73
2022-10-01T04:48:44.605Z,14.38
2022-10-01T04:51:11.353Z,14.15
2022-10-01T04:53:38.959Z,16.02
2022-10-01T04:56:05.964Z,15.35
2022-10-01T04:58:33.065Z,17.38
2022-10-01T05:01:02.211Z,18.67
2022-10-01T05:03:29.271Z,18.00
2022-10-01T05:05:56.065Z,18.17
2022-10-01T05:08:23.311Z,18.83
2022-10-01T05:10:50.073Z,18.00
2022-10-01T05:13:16.832Z,16.83
2022-10-01T05:15:44.484Z,15.95
2022-10-01T05:18:11.339Z,16.10
2022-10-01T05:20:38.529Z,20.98
2022-10-01T05:23:05.364Z,16.00
2022-10-01T05:25:32.210Z,15.13
2022-10-01T05:28:05.475Z,13.55
2022-10-01T05:30:33.825Z,14.15
2022-10-01T05:33:03.524Z,14.00
2022-10-01T05:35:31.225Z,12.63
2022-10-01T05:38:00.192Z,12.98
2022-10-01T05:40:28.738Z,12.52
2022-10-01T05:43:00.319Z,9.40
2022-10-01T05:45:28.538Z,9.48
2022-10-01T05:48:00.849Z,9.00
2022-10-01T05:50:31.735Z,9.15
2022-10-01T05:52:59.799Z,8.40
2022-10-01T05:55:27.260Z,8.60
2022-10-01T05:57:55.668Z,10.23
2022-10-01T06:00:23.120Z,10.48
2022-10-01T06:02:51.853Z,10.35
2022-10-01T06:05:19.715Z,8.43
2022-10-01T06:07:46.691Z,8.88
2022-10-01T06:10:13.924Z,9.23
2022-10-01T06:12:41.090Z,9.18
2022-10-01T06:15:08.308Z,13.98
2022-10-01T06:17:35.255Z,9.48
2022-10-01T06:20:02.271Z,8.05
2022-10-01T06:22:29.112Z,9.25
2022-10-01T06:24:56.787Z,8.25
2022-10-01T06:27:23.642Z,8.15
2022-10-01T06:29:50.417Z,8.40
2022-10-01T06:32:19.862Z,7.95
2022-10-01T06:34:46.745Z,7.90
2022-10-01T06:37:13.750Z,8.38
2022-10-01T06:39:40.693Z,7.40
2022-10-01T06:42:07.474Z,7.75
2022-10-01T06:44:34.296Z,7.63
2022-10-01T06:47:01.052Z,9.23
2022-10-01T06:49:27.952Z,9.82
2022-10-01T06:52:13.134Z,8.20
2022-10-01T06:54:40.003Z,10.13
2022-10-01T06:57:07.218Z,8.82
2022-10-01T06:59:36.519Z,9.48
2022-10-01T07:02:05.001Z,8.80
2022-10-01T07:04:31.821Z,8.25
2022-10-01T07:06:58.592Z,9.45
2022-10-01T07:09:25.762Z,7.78
2022-10-01T07:11:57.486Z,10.00
2022-10-01T07:14:24.252Z,9.02
2022-10-01T07:16:51.096Z,9.82
2022-10-01T07:19:17.932Z,10.93
2022-10-01T07:21:47.022Z,8.40
2022-10-01T07:24:14.352Z,8.27
2022-10-01T07:26:41.242Z,8.60
2022-10-01T07:29:09.861Z,7.38
2022-10-01T07:31:37.212Z,8.27
2022-10-01T07:34:04.432Z,7.18
2022-10-01T07:36:31.254Z,6.90
2022-10-01T07:38:59.272Z,8.68
2022-10-01T07:41:26.180Z,6.23
2022-10-01T07:43:53.082Z,6.80
2022-10-01T07:46:19.908Z,6.03
2022-10-01T07:48:49.361Z,5.85
2022-10-01T07:51:16.169Z,5.47
2022-10-01T07:53:43.007Z,5.63
2022-10-01T07:56:09.793Z,5.00
2022-10-01T07:58:36.678Z,6.47
2022-10-01T08:01:04.457Z,6.88
2022-10-01T08:03:31.253Z,5.40
2022-10-01T08:05:58.080Z,6.35
2022-10-01T08:08:24.939Z,5.15
2022-10-01T08:10:51.776Z,6.47
2022-10-01T08:13:19.067Z,5.82
2022-10-01T08:15:50.656Z,6.07
2022-10-01T08:18:17.656Z,7.40
2022-10-01T08:20:44.588Z,9.67
2022-10-01T08:23:14.872Z,12.80
2022-10-01T08:25:42.876Z,6.60
2022-10-01T08:28:11.419Z,6.23
2022-10-01T08:30:40.077Z,7.63
2022-10-01T08:33:07.793Z,4.97
2022-10-01T08:35:34.655Z,5.10
2022-10-01T08:38:02.568Z,4.70
2022-10-01T08:40:30.623Z,5.65
2022-10-01T08:43:06.470Z,7.72
2022-10-01T08:45:39.109Z,6.03
2022-10-01T08:48:07.623Z,6.30
2022-10-01T08:50:46.718Z,6.63
2022-10-01T08:53:31.593Z,6.22
2022-10-01T08:56:01.072Z,6.53
2022-10-01T08:58:45.329Z,6.13
2022-10-01T09:01:12.652Z,5.53
2022-10-01T09:03:40.669Z,5.90
2022-10-01T09:06:21.077Z,7.18
2022-10-01T09:09:05.789Z,6.03
2022-10-01T09:11:59.429Z,5.78
2022-10-01T09:14:37.730Z,6.15
2022-10-01T09:17:43.352Z,7.10
2022-10-01T09:20:23.701Z,4.88
2022-10-01T09:23:15.528Z,6.32
2022-10-01T09:25:46.040Z,6.32
2022-10-01T09:28:21.038Z,7.30
2022-10-01T09:30:56.945Z,7.68
2022-10-01T09:33:30.557Z,7.63
2022-10-01T09:36:28.382Z,7.72
2022-10-01T09:39:31.571Z,8.27
2022-10-01T09:41:59.907Z,7.78
2022-10-01T09:44:32.732Z,7.00
2022-10-01T09:46:59.769Z,6.60
2022-10-01T09:49:39.702Z,6.95
2022-10-01T09:52:15.278Z,5.95
2022-10-01T09:54:56.794Z,7.80
2022-10-01T09:57:28.976Z,6.63
2022-10-01T10:00:18.112Z,8.68
2022-10-01T10:02:49.443Z,7.63
2022-10-01T10:05:39.035Z,8.27
2022-10-01T10:08:30.006Z,6.65
2022-10-01T10:11:06.778Z,6.10
2022-10-01T10:13:40.359Z,5.43
2022-10-01T10:16:15.752Z,5.05
2022-10-01T10:18:42.925Z,6.63
2022-10-01T10:21:16.567Z,6.45
2022-10-01T10:23:55.102Z,5.97
2022-10-01T10:26:51.613Z,7.35
2022-10-01T10:29:31.594Z,7.28
2022-10-01T10:32:02.673Z,8.00
2022-10-01T10:34:47.498Z,7.40
2022-10-01T10:37:23.624Z,8.18
2022-10-01T10:39:52.543Z,7.50
2022-10-01T10:44:50.078Z,8.18
2022-10-01T10:47:20.782Z,8.48
2022-10-01T10:50:06.073Z,8.60
2022-10-01T10:52:36.510Z,7.88
2022-10-01T10:55:22.583Z,7.95
2022-10-01T10:57:50.842Z,8.50
2022-10-01T11:00:23.953Z,9.82
2022-10-01T11:02:53.941Z,8.30
2022-10-01T11:05:23.311Z,8.43
2022-10-01T11:07:54.726Z,10.57
2022-10-01T11:10:46.471Z,8.25
2022-10-01T11:13:34.339Z,10.07
2022-10-01T11:16:10.442Z,7.80
2022-10-01T11:18:56.164Z,8.70
2022-10-01T11:21:48.017Z,9.05
2022-10-01T11:24:33.917Z,10.30
2022-10-01T11:27:12.267Z,10.02
2022-10-01T11:30:05.287Z,8.80
2022-10-01T11:33:03.677Z,8.30
2022-10-01T11:35:50.389Z,8.82
2022-10-01T11:39:01.721Z,8.93
2022-10-01T11:41:40.023Z,9.90
2022-10-01T11:44:30.618Z,9.45
2022-10-01T11:46:59.188Z,8.63
2022-10-01T11:49:43.949Z,10.70
2022-10-01T11:52:19.652Z,9.55
2022-10-01T11:55:38.931Z,9.98
2022-10-01T11:58:48.116Z,9.77
2022-10-01T12:01:23.999Z,8.52
2022-10-01T12:03:53.515Z,7.82
2022-10-01T12:06:34.122Z,9.60
2022-10-01T12:09:08.397Z,9.80
2022-10-01T12:11:53.363Z,8.77
2022-10-01T12:14:29.792Z,6.15
2022-10-01T12:17:18.647Z,7.10
2022-10-01T12:19:50.590Z,6.55
2022-10-01T12:22:25.230Z,5.72
2022-10-01T12:24:53.790Z,6.25
2022-10-01T12:27:33.513Z,5.20
2022-10-01T12:30:10.380Z,5.40
2022-10-01T12:33:20.473Z,4.78
2022-10-01T12:35:59.796Z,4.57
2022-10-01T12:39:10.457Z,5.50
2022-10-01T12:41:37.696Z,3.80
2022-10-01T12:44:16.615Z,3.53
2022-10-01T12:47:26.040Z,3.70
2022-10-01T12:50:13.055Z,6.72
2022-10-01T12:52:57.953Z,3.50
2022-10-01T12:55:49.209Z,4.25
2022-10-01T12:58:35.562Z,3.17
2022-10-01T13:01:08.425Z,4.93
2022-10-01T13:04:03.807Z,4.05
2022-10-01T13:06:48.637Z,5.45
2022-10-01T13:09:35.257Z,4.30
2022-10-01T13:12:46.252Z,4.80
2022-10-01T13:15:27.183Z,4.30
2022-10-01T13:18:29.363Z,4.32
2022-10-01T13:21:32.465Z,2.95
2022-10-01T13:24:06.070Z,3.28
2022-10-01T13:26:59.400Z,2.65
2022-10-01T13:29:42.422Z,3.00
2022-10-01T13:32:45.808Z,3.10
2022-10-01T13:35:36.108Z,3.65
2022-10-01T13:38:29.206Z,3.80
2022-10-01T13:41:17.672Z,4.45
2022-10-01T13:43:54.256Z,3.42
2022-10-01T13:46:21.534Z,4.90
2022-10-01T13:48:50.655Z,5.93
2022-10-01T13:51:17.736Z,3.42
2022-10-01T13:53:45.096Z,4.05
2022-10-01T13:56:26.226Z,4.25
2022-10-01T13:58:53.356Z,3.28
2022-10-01T14:01:23.865Z,4.32
2022-10-01T14:04:16.148Z,3.58
2022-10-01T14:06:53.552Z,3.83
2022-10-01T14:09:28.405Z,3.65
2022-10-01T14:12:38.633Z,3.67
2022-10-01T14:15:38.353Z,3.30
2022-10-01T14:18:28.674Z,2.38
2022-10-01T14:21:25.980Z,3.22
2022-10-01T14:24:05.446Z,2.92
2022-10-01T14:26:38.252Z,6.35
2022-10-01T14:29:21.341Z,4.45
2022-10-01T14:32:02.902Z,3.38
2022-10-01T14:34:32.353Z,3.58
2022-10-01T14:36:59.444Z,8.10
2022-10-01T14:39:28.871Z,2.78
2022-10-01T14:41:57.978Z,3.25
2022-10-01T14:44:30.269Z,5.57
2022-10-01T14:46:59.632Z,4.07
2022-10-01T14:49:32.437Z,3.13
2022-10-01T14:52:25.644Z,3.88
2022-10-01T14:54:52.540Z,6.25
2022-10-01T14:57:34.754Z,5.40
2022-10-01T15:00:08.741Z,6.95
2022-10-01T15:03:02.138Z,4.63
2022-10-01T15:05:34.665Z,4.38
2022-10-01T15:08:14.903Z,4.78
2022-10-01T15:11:02.244Z,5.85
2022-10-01T15:13:35.528Z,5.18
2022-10-01T15:16:03.229Z,5.60
2022-10-01T15:18:31.771Z,6.10
2022-10-01T15:21:06.533Z,6.95
2022-10-01T15:23:39.876Z,6.32
2022-10-01T15:26:11.493Z,7.38
2022-10-01T15:28:38.330Z,6.68
2022-10-01T15:31:06.844Z,6.95
2022-10-01T15:33:36.650Z,7.63
2022-10-01T15:36:06.477Z,7.90
2022-10-01T15:38:34.010Z,7.28
2022-10-01T15:41:26.946Z,7.65
2022-10-01T15:43:50.845Z,8.07
2022-10-01T15:46:29.222Z,8.63
2022-10-01T15:49:18.056Z,8.13
2022-10-01T15:52:10.745Z,7.32
2022-10-01T15:54:39.046Z,6.95
2022-10-01T15:57:06.844Z,6.82
2022-10-01T15:59:35.605Z,7.53
2022-10-01T16:02:08.854Z,7.03
2022-10-01T16:04:35.985Z,9.15
2022-10-01T16:07:02.937Z,17.23
2022-10-01T16:09:30.913Z,14.75
2022-10-01T16:12:09.952Z,42.28
2022-10-01T16:14:39.458Z,31.52
2022-10-01T16:17:18.153Z,25.33
2022-10-01T16:19:46.609Z,23.90
2022-10-01T16:22:17.326Z,24.40
2022-10-01T16:24:55.172Z,19.67
2022-10-01T16:27:23.866Z,16.65
2022-10-01T16:30:01.340Z,14.63
2022-10-01T16:32:31.775Z,15.95
2022-10-01T16:35:23.245Z,14.93
2022-10-01T16:37:52.065Z,13.55
2022-10-01T16:40:21.126Z,12.27
2022-10-01T16:42:52.001Z,16.55
2022-10-01T16:45:24.830Z,14.30
2022-10-01T16:47:52.954Z,11.20
2022-10-01T16:50:21.911Z,14.30
2022-10-01T16:52:52.697Z,13.65
2022-10-01T16:55:24.147Z,15.10
2022-10-01T16:57:52.933Z,14.50
2022-10-01T17:00:22.069Z,19.08
2022-10-01T17:02:48.883Z,15.27
2022-10-01T17:05:34.154Z,16.83
2022-10-01T17:08:01.516Z,16.85
2022-10-01T17:10:33.787Z,17.83
2022-10-01T17:13:02.158Z,20.40
2022-10-01T17:15:29.108Z,18.48
2022-10-01T17:17:57.568Z,14.95
2022-10-01T17:20:28.763Z,16.33
2022-10-01T17:22:56.844Z,14.00
2022-10-01T17:25:34.422Z,15.90
2022-10-01T17:28:03.204Z,14.75
2022-10-01T17:30:30.966Z,14.52
2022-10-01T17:33:02.386Z,14.30
2022-10-01T17:35:30.271Z,13.70
2022-10-01T17:37:57.288Z,13.55
2022-10-01T17:40:24.308Z,14.75
2022-10-01T17:42:51.112Z,23.35
2022-10-01T17:45:17.879Z,35.65
2022-10-01T17:47:46.412Z,38.40
2022-10-01T17:50:15.075Z,34.75
2022-10-01T17:52:41.944Z,36.50
2022-10-01T17:55:09.614Z,34.92
2022-10-01T17:57:36.458Z,32.75
2022-10-01T18:00:05.016Z,33.35
2022-10-01T18:02:43.271Z,33.08
2022-10-01T18:05:14.563Z,26.23
2022-10-01T18:07:42.746Z,25.40
2022-10-01T18:10:12.311Z,18.33
2022-10-01T18:12:39.301Z,21.85
2022-10-01T18:15:06.749Z,20.92
2022-10-01T18:17:36.495Z,21.70
2022-10-01T18:20:06.453Z,19.42
2022-10-01T18:22:34.742Z,20.00
2022-10-01T18:25:03.564Z,20.38
2022-10-01T18:27:31.028Z,16.15
2022-10-01T18:29:57.819Z,16.27
2022-10-01T18:32:31.445Z,16.98
2022-10-01T18:35:00.467Z,17.33
2022-10-01T18:40:25.020Z,15.65
2022-10-01T18:42:55.231Z,16.50
2022-10-01T18:45:38.702Z,18.67
2022-10-01T18:48:25.154Z,17.85
2022-10-01T18:50:57.754Z,20.48
2022-10-01T18:53:36.501Z,22.00
2022-10-01T18:56:05.953Z,23.73
2022-10-01T18:58:42.382Z,26.15
2022-10-01T19:01:23.631Z,26.35
2022-10-01T19:04:00.270Z,22.98
2022-10-01T19:06:43.849Z,23.25
2022-10-01T19:09:36.879Z,23.73
2022-10-01T19:12:10.823Z,33.72
2022-10-01T19:15:00.894Z,26.85
2022-10-01T19:17:33.752Z,22.88
2022-10-01T19:20:11.256Z,25.95
2022-10-01T19:23:09.782Z,30.20
2022-10-01T19:25:48.842Z,25.98
2022-10-01T19:28:37.489Z,24.35
2022-10-01T19:31:36.314Z,21.63
2022-10-01T19:36:59.992Z,19.45
2022-10-01T19:39:34.591Z,14.23
2022-10-01T19:42:07.039Z,10.07
2022-10-01T19:44:49.715Z,12.35
2022-10-01T19:47:22.305Z,11.60
2022-10-01T19:49:52.654Z,14.55
2022-10-01T19:52:22.857Z,12.43
2022-10-01T19:54:55.811Z,10.57
2022-10-01T19:57:26.491Z,11.07
2022-10-01T19:59:59.707Z,11.63
2022-10-01T20:02:46.303Z,10.50
2022-10-01T20:05:18.994Z,14.13
2022-10-01T20:07:50.251Z,11.32
2022-10-01T20:10:54.266Z,8.75
2022-10-01T20:13:33.031Z,12.48
2022-10-01T20:16:22.576Z,13.40
2022-10-01T20:19:18.992Z,11.45
2022-10-01T20:21:54.577Z,12.32
2022-10-01T20:24:49.402Z,14.52
2022-10-01T20:27:34.734Z,15.35
2022-10-01T20:30:09.136Z,11.45
2022-10-01T20:32:38.968Z,14.25
2022-10-01T20:36:01.420Z,14.10
2022-10-01T20:38:34.915Z,17.40
2022-10-01T20:41:10.289Z,14.55
2022-10-01T20:43:55.851Z,13.48
2022-10-01T20:46:45.857Z,15.30
2022-10-01T20:49:24.635Z,13.85
2022-10-01T20:52:02.334Z,12.88
2022-10-01T20:54:46.794Z,12.23
2022-10-01T20:57:27.827Z,13.98
2022-10-01T20:59:58.544Z,14.55
2022-10-01T21:02:42.792Z,15.48
2022-10-01T21:05:17.860Z,14.77
2022-10-01T21:07:59.748Z,15.10
2022-10-01T21:10:45.097Z,16.00
2022-10-01T21:13:30.153Z,14.32
2022-10-01T21:16:27.404Z,16.42
2022-10-01T21:19:17.368Z,14.57
2022-10-01T21:22:21.766Z,13.48
2022-10-01T21:25:03.573Z,14.98
2022-10-01T21:28:00.268Z,14.77
2022-10-01T21:30:37.501Z,15.68
2022-10-01T21:33:06.943Z,15.93
2022-10-01T21:35:49.286Z,17.70
2022-10-01T21:38:51.420Z,18.75
2022-10-01T21:41:21.007Z,20.15
2022-10-01T21:43:50.651Z,19.85
2022-10-01T21:46:30.718Z,21.90
2022-10-01T21:49:07.610Z,24.73
2022-10-01T21:51:52.390Z,19.70
2022-10-01T21:54:35.920Z,17.40
2022-10-01T21:57:31.341Z,17.80
2022-10-01T22:00:32.846Z,16.40
2022-10-01T22:03:11.202Z,14.80
2022-10-01T22:05:50.426Z,14.60
2022-10-01T22:08:48.313Z,13.27
2022-10-01T22:11:21.243Z,15.52
2022-10-01T22:13:58.528Z,13.60
2022-10-01T22:16:30.540Z,15.02
2022-10-01T22:19:01.625Z,14.10
2022-10-01T22:21:36.065Z,13.93
2022-10-01T22:24:10.046Z,13.52
2022-10-01T22:26:42.333Z,11.65
2022-10-01T22:29:15.251Z,9.75
2022-10-01T22:31:44.399Z,5.55
2022-10-01T22:34:17.471Z,6.57
2022-10-01T22:36:52.948Z,4.75
2022-10-01T22:39:24.251Z,4.72
2022-10-01T22:42:01.691Z,5.00
2022-10-01T22:44:29.597Z,4.63
2022-10-01T22:46:59.378Z,3.20
2022-10-01T22:49:42.624Z,3.58
2022-10-01T22:52:28.220Z,2.50
2022-10-01T22:54:54.968Z,1.88
2022-10-01T22:57:34.317Z,2.58
2022-10-01T23:00:13.467Z,2.25
2022-10-01T23:03:01.921Z,2.10
2022-10-01T23:06:05.939Z,1.58
2022-10-01T23:08:58.625Z,1.73
2022-10-01T23:11:28.931Z,1.30
2022-10-01T23:14:24.795Z,1.77
2022-10-01T23:17:07.476Z,1.58
2022-10-01T23:19:55.948Z,1.55
2022-10-01T23:22:52.138Z,1.98
2022-10-01T23:25:28.323Z,1.98
2022-10-01T23:28:19.426Z,1.80
2022-10-01T23:31:06.844Z,1.83
2022-10-01T23:34:17.832Z,1.83
2022-10-01T23:36:50.181Z,1.70
2022-10-01T23:39:25.391Z,1.58
2022-10-01T23:42:15.888Z,1.65
2022-10-01T23:45:11.789Z,1.85
2022-10-01T23:47:47.914Z,1.48
2022-10-01T23:50:29.705Z,1.60
2022-10-01T23:53:14.314Z,1.00
2022-10-01T23:56:44.887Z,1.58
2022-10-01T23:59:28.603Z,1.95
